Time;durP1;ratioP1;P1;durP2;ratioP2;P2;SDS_P1;SDS_P2;PMS_P1;PMS_P2;Temp;Humidity;BMP_temperature;BMP_pressure;BME280_temperature;BME280_humidity;BME280_pressure;Samples;Min_cycle;Max_cycle;Signal;HPM_P1;HPM_P2
2022/06/23 00:02:39;;;;;;;;;;;;;;;25.25;50.77;95395.31;10459567;28;1873;-55
2022/06/23 00:07:43;;;;;;;;;;;;;;;25.26;50.70;95402.19;10473242;28;1985;-56
2022/06/23 00:12:43;;;;;;;;;;;;;;;25.26;50.85;95409.34;10466323;28;1851;-52
2022/06/23 00:17:53;;;;;;;;;;;;;;;25.25;50.72;95413.88;10446610;28;2119;-54
2022/06/23 00:23:10;;;;;;;;;;;;;;;25.25;50.81;95419.19;10470169;28;1951;-56
2022/06/23 00:28:21;;;;;;;;;;;;;;;25.27;50.79;95416.22;10456668;28;1968;-53
2022/06/23 00:33:25;;;;;;;;;;;;;;;25.26;50.79;95415.44;10468340;28;2075;-56
2022/06/23 00:38:37;;;;;;;;;;;;;;;25.26;50.67;95418.09;10456956;28;2018;-56
2022/06/23 00:43:37;;;;;;;;;;;;;;;25.26;50.80;95418.09;10437361;28;2760;-57
2022/06/23 00:48:40;;;;;;;;;;;;;;;25.26;51.04;95422.63;10454663;28;1982;-55
2022/06/23 00:53:48;;;;;;;;;;;;;;;25.26;50.87;95425.28;10454540;28;1919;-56
2022/06/23 00:58:54;;;;;;;;;;;;;;;25.26;50.66;95423.41;10471971;28;1872;-55
2022/06/23 01:03:54;;;;;;;;;;;;;;;25.28;50.58;95425.75;10486910;28;2006;-53
2022/06/23 01:08:56;;;;;;;;;;;;;;;25.28;50.55;95428.41;10452204;28;1918;-57
2022/06/23 01:13:59;;;;;;;;;;;;;;;25.24;50.46;95430.91;10456188;28;1907;-56
2022/06/23 01:19:18;;;;;;;;;;;;;;;25.23;49.90;95439.94;10487526;28;1998;-54
2022/06/23 01:24:38;;;;;;;;;;;;;;;25.17;49.43;95435.88;10441459;28;1849;-53
2022/06/23 01:29:46;;;;;;;;;;;;;;;25.12;49.07;95440.56;10473331;28;1975;-58
2022/06/23 01:35:06;;;;;;;;;;;;;;;25.12;49.16;95444.00;10470084;28;1898;-54
2022/06/23 01:40:26;;;;;;;;;;;;;;;25.12;48.90;95440.56;10468825;28;1943;-54
2022/06/23 01:45:30;;;;;;;;;;;;;;;25.10;48.38;95432.88;10484101;28;1899;-57
2022/06/23 01:50:36;;;;;;;;;;;;;;;25.11;48.93;95445.06;10461497;28;2008;-56
2022/06/23 01:55:51;;;;;;;;;;;;;;;25.13;48.70;95445.53;10462834;28;1906;-57
2022/06/23 02:00:56;;;;;;;;;;;;;;;25.13;48.74;95442.88;10461220;28;2142;-55
2022/06/23 02:06:04;;;;;;;;;;;;;;;25.14;48.76;95460.38;10444677;28;2137;-56
2022/06/23 02:11:24;;;;;;;;;;;;;;;25.16;49.00;95462.72;10491702;28;2459;-53
2022/06/23 02:16:32;;;;;;;;;;;;;;;25.17;48.98;95461.59;10478239;28;1821;-59
2022/06/23 02:21:36;;;;;;;;;;;;;;;25.16;48.65;95455.53;10477784;28;1856;-54
2022/06/23 02:26:53;;;;;;;;;;;;;;;25.14;48.49;95451.63;10490568;28;1765;-57
2022/06/23 02:32:15;;;;;;;;;;;;;;;25.12;47.82;95467.88;10452313;28;2107;-58
2022/06/23 02:37:38;;;;;;;;;;;;;;;25.11;47.80;95471.59;10462285;28;1757;-53
2022/06/23 02:42:41;;;;;;;;;;;;;;;25.12;47.83;95478.47;10476624;28;1831;-56
2022/06/23 02:47:50;;;;;;;;;;;;;;;25.13;48.19;95471.28;10478246;28;1902;-56
2022/06/23 02:52:58;;;;;;;;;;;;;;;25.16;48.48;95486.59;10476597;28;1809;-57
2022/06/23 02:57:59;;;;;;;;;;;;;;;25.15;48.15;95491.09;10453716;28;1954;-58
2022/06/23 03:03:02;;;;;;;;;;;;;;;25.16;48.14;95487.38;10478074;28;1836;-57
2022/06/23 03:08:07;;;;;;;;;;;;;;;25.15;48.04;95491.09;10475507;28;2354;-56
2022/06/23 03:13:08;;;;;;;;;;;;;;;25.12;47.40;95494.38;10446298;28;1770;-56
2022/06/23 03:18:11;;;;;;;;;;;;;;;25.12;47.69;95491.72;10471952;28;1792;-54
2022/06/23 03:23:30;;;;;;;;;;;;;;;25.12;47.55;95506.88;10459137;28;1855;-56
2022/06/23 03:28:41;;;;;;;;;;;;;;;25.11;47.41;95505.28;10477634;28;1909;-58
2022/06/23 03:33:42;;;;;;;;;;;;;;;25.11;47.24;95499.97;10476670;28;1971;-59
2022/06/23 03:44:25;;;;;;;;;;;;;;;25.13;47.64;95509.19;10460966;28;1828;-56
2022/06/23 03:49:35;;;;;;;;;;;;;;;25.10;46.91;95512.44;10457941;28;1914;-57
2022/06/23 03:54:44;;;;;;;;;;;;;;;25.10;46.53;95520.41;10461863;28;2353;-54
2022/06/23 04:00:04;;;;;;;;;;;;;;;25.09;46.61;95513.56;10493200;28;1803;-55
2022/06/23 04:05:10;;;;;;;;;;;;;;;25.08;46.31;95522.59;10476249;28;1859;-57
2022/06/23 04:10:12;;;;;;;;;;;;;;;25.11;46.68;95521.97;10472493;28;1976;-52
2022/06/23 04:15:42;;;;;;;;;;;;;;;25.12;47.07;95528.09;10475679;28;1726;-53
2022/06/23 04:20:44;;;;;;;;;;;;;;;25.11;46.55;95521.97;10454870;28;1836;-53
2022/06/23 04:25:56;;;;;;;;;;;;;;;25.10;47.00;95517.75;10473376;28;1817;-56
2022/06/23 04:30:58;;;;;;;;;;;;;;;25.12;47.29;95514.81;10428942;28;1986;-56
2022/06/23 04:36:00;;;;;;;;;;;;;;;25.12;46.69;95518.25;10443994;28;1804;-57
2022/06/23 04:41:00;;;;;;;;;;;;;;;25.13;46.47;95511.84;10469802;28;1796;-57
2022/06/23 04:46:13;;;;;;;;;;;;;;;25.11;46.47;95516.69;10470296;28;1823;-56
2022/06/23 04:51:19;;;;;;;;;;;;;;;25.02;48.66;95516.66;10469600;28;2024;-55
2022/06/23 04:56:32;;;;;;;;;;;;;;;24.89;49.86;95522.84;10471189;28;1915;-57
2022/06/23 05:01:35;;;;;;;;;;;;;;;24.76;50.27;95533.53;10470965;28;2033;-58
2022/06/23 05:06:36;;;;;;;;;;;;;;;24.68;50.86;95527.09;10455489;28;1832;-57
2022/06/23 05:11:43;;;;;;;;;;;;;;;24.65;51.00;95534.84;10471185;28;1975;-57
2022/06/23 05:16:44;;;;;;;;;;;;;;;24.60;51.10;95527.84;10474435;28;1836;-54
2022/06/23 05:22:08;;;;;;;;;;;;;;;24.53;51.13;95534.63;10470891;28;1871;-56
2022/06/23 05:27:14;;;;;;;;;;;;;;;24.51;50.93;95529.66;10478214;28;1889;-58
2022/06/23 05:32:16;;;;;;;;;;;;;;;24.51;50.96;95540.25;10448137;28;1967;-56
2022/06/23 05:37:21;;;;;;;;;;;;;;;24.52;50.96;95533.09;10439671;28;2175;-57
2022/06/23 05:42:23;;;;;;;;;;;;;;;24.51;50.99;95536.81;10460954;28;1815;-56
2022/06/23 05:47:23;;;;;;;;;;;;;;;24.50;50.46;95536.03;10493211;28;1909;-58
2022/06/23 05:52:25;;;;;;;;;;;;;;;24.48;50.51;95529.47;10480841;28;1835;-55
2022/06/23 05:57:29;;;;;;;;;;;;;;;24.47;50.36;95534.00;10478996;28;1864;-57
2022/06/23 06:02:29;;;;;;;;;;;;;;;24.47;50.38;95538.50;10464357;28;1912;-55
2022/06/23 06:07:38;;;;;;;;;;;;;;;24.46;50.34;95531.66;10455547;28;1969;-58
2022/06/23 06:12:39;;;;;;;;;;;;;;;24.51;50.43;95542.09;10449818;28;1815;-58
2022/06/23 06:17:40;;;;;;;;;;;;;;;24.52;50.66;95535.75;10446992;28;1941;-56
2022/06/23 06:22:59;;;;;;;;;;;;;;;24.58;50.94;95545.91;10477429;28;1836;-55
2022/06/23 06:28:04;;;;;;;;;;;;;;;24.60;50.53;95553.56;10479961;28;1988;-58
2022/06/23 06:33:04;;;;;;;;;;;;;;;24.61;50.45;95557.75;10465212;28;1915;-56
2022/06/23 06:38:12;;;;;;;;;;;;;;;24.62;50.70;95556.69;10457758;28;1948;-56
2022/06/23 06:43:13;;;;;;;;;;;;;;;24.60;50.40;95557.00;10464728;28;1843;-57
2022/06/23 06:48:21;;;;;;;;;;;;;;;24.61;50.54;95557.75;10460993;28;1918;-55
2022/06/23 06:53:40;;;;;;;;;;;;;;;24.61;50.32;95552.44;10484508;28;1871;-55
2022/06/23 06:58:41;;;;;;;;;;;;;;;24.58;50.65;95561.81;10479069;28;1843;-57
2022/06/23 07:03:43;;;;;;;;;;;;;;;24.63;50.38;95559.00;10473709;28;1795;-55
2022/06/23 07:08:48;;;;;;;;;;;;;;;24.61;50.55;95557.75;10479448;28;1976;-58
2022/06/23 07:14:07;;;;;;;;;;;;;;;24.63;50.57;95563.53;10487832;28;1866;-59
2022/06/23 07:19:12;;;;;;;;;;;;;;;24.61;50.32;95561.19;10488740;28;1844;-55
2022/06/23 07:24:17;;;;;;;;;;;;;;;24.64;50.15;95559.81;10463432;28;1951;-58
2022/06/23 07:29:33;;;;;;;;;;;;;;;24.67;50.14;95548.59;10476401;28;1967;-56
2022/06/23 07:34:35;;;;;;;;;;;;;;;24.69;50.11;95554.38;10476840;28;1876;-57
2022/06/23 07:39:37;;;;;;;;;;;;;;;24.69;50.04;95547.19;10476855;28;1859;-57
2022/06/23 07:44:39;;;;;;;;;;;;;;;24.71;49.91;95550.31;10485939;28;2778;-53
2022/06/23 07:49:39;;;;;;;;;;;;;;;24.71;50.13;95549.56;10453184;28;1989;-56
2022/06/23 07:54:42;;;;;;;;;;;;;;;24.67;49.78;95544.06;10457075;28;2051;-56
2022/06/23 08:00:03;;;;;;;;;;;;;;;24.65;49.74;95551.53;10457034;28;1862;-58
2022/06/23 08:05:08;;;;;;;;;;;;;;;24.59;49.64;95538.72;10471990;28;1848;-57
2022/06/23 08:10:13;;;;;;;;;;;;;;;24.56;49.47;95539.34;10458736;28;1909;-54
2022/06/23 08:20:37;;;;;;;;;;;;;;;24.62;49.46;95524.88;10460736;28;1839;-57
2022/06/23 08:25:37;;;;;;;;;;;;;;;24.65;49.30;95525.03;10457534;28;1757;-57
2022/06/23 08:30:39;;;;;;;;;;;;;;;24.68;49.34;95524.44;10443713;28;1914;-56
2022/06/23 08:35:44;;;;;;;;;;;;;;;24.71;49.54;95515.09;10438937;28;1835;-58
2022/06/23 08:40:47;;;;;;;;;;;;;;;24.68;49.21;95505.88;10436230;28;1961;-55
2022/06/23 08:45:49;;;;;;;;;;;;;;;24.71;49.26;95504.50;10456495;28;1805;-57
2022/06/23 08:50:58;;;;;;;;;;;;;;;24.72;49.02;95498.09;10460101;28;2209;-57
2022/06/23 08:55:58;;;;;;;;;;;;;;;24.73;48.70;95508.41;10482308;28;1851;-57
2022/06/23 09:01:07;;;;;;;;;;;;;;;24.74;48.88;95495.97;10453628;28;1918;-57
2022/06/23 09:06:26;;;;;;;;;;;;;;;24.76;48.96;95491.13;10441975;28;1815;-57
2022/06/23 09:11:30;;;;;;;;;;;;;;;24.79;48.85;95498.47;10485327;28;1917;-58
2022/06/23 09:16:44;;;;;;;;;;;;;;;24.79;48.27;95487.88;10442491;28;1750;-56
2022/06/23 09:21:48;;;;;;;;;;;;;;;24.83;48.65;95488.84;10468337;28;1815;-56
2022/06/23 09:26:54;;;;;;;;;;;;;;;24.84;48.49;95469.97;10482903;28;2180;-58
2022/06/23 09:31:59;;;;;;;;;;;;;;;24.86;48.63;95461.69;10432802;28;1981;-56
2022/06/23 09:37:06;;;;;;;;;;;;;;;24.85;48.15;95455.59;10451986;28;1812;-57
2022/06/23 09:42:12;;;;;;;;;;;;;;;24.87;48.21;95450.00;10452419;28;1809;-57
2022/06/23 09:47:25;;;;;;;;;;;;;;;24.88;48.18;95446.25;10484356;28;1800;-54
2022/06/23 09:52:35;;;;;;;;;;;;;;;24.91;48.17;95445.66;10457739;28;1918;-58
2022/06/23 09:57:35;;;;;;;;;;;;;;;24.87;47.74;95445.47;10485945;28;1934;-57
2022/06/23 10:02:38;;;;;;;;;;;;;;;24.89;47.82;95431.94;10473358;28;1828;-54
2022/06/23 10:07:39;;;;;;;;;;;;;;;24.92;47.78;95433.94;10476588;28;1987;-56
2022/06/23 10:12:43;;;;;;;;;;;;;;;24.92;47.80;95421.47;10492905;28;1835;-57
2022/06/23 10:17:46;;;;;;;;;;;;;;;24.97;48.02;95420.56;10453116;28;1902;-56
2022/06/23 10:22:50;;;;;;;;;;;;;;;24.98;47.97;95420.25;10462428;28;1797;-58
2022/06/23 10:28:10;;;;;;;;;;;;;;;25.02;48.43;95415.09;10492211;28;1914;-58
2022/06/23 10:33:11;;;;;;;;;;;;;;;25.08;48.47;95419.16;10480484;28;1855;-58
2022/06/23 10:38:30;;;;;;;;;;;;;;;25.10;48.34;95419.63;10474040;28;1874;-56
2022/06/23 10:43:33;;;;;;;;;;;;;;;25.11;48.46;95421.19;10475874;28;1824;-56
2022/06/23 10:48:42;;;;;;;;;;;;;;;25.15;48.42;95408.09;10478896;28;1918;-56
2022/06/23 10:53:48;;;;;;;;;;;;;;;25.17;48.33;95409.34;10470980;28;1928;-57
2022/06/23 10:59:03;;;;;;;;;;;;;;;25.18;48.34;95395.00;10477261;28;1868;-57
2022/06/23 11:04:07;;;;;;;;;;;;;;;25.20;48.43;95392.81;10477425;28;1808;-58
2022/06/23 11:09:10;;;;;;;;;;;;;;;25.24;48.72;95399.06;10457670;28;1965;-56
2022/06/23 11:14:29;;;;;;;;;;;;;;;25.26;48.36;95393.44;10473561;28;1792;-55
2022/06/23 11:19:29;;;;;;;;;;;;;;;25.23;48.44;95386.88;10486946;28;1931;-57
2022/06/23 11:24:36;;;;;;;;;;;;;;;25.25;48.32;95378.59;10454598;28;1858;-57
2022/06/23 11:29:42;;;;;;;;;;;;;;;25.24;48.40;95385.81;10490755;28;1914;-57
2022/06/23 11:35:04;;;;;;;;;;;;;;;25.25;48.24;95371.44;10474177;28;1835;-58
2022/06/23 11:40:23;;;;;;;;;;;;;;;25.25;48.33;95360.03;10448705;28;1802;-59
2022/06/23 11:45:23;;;;;;;;;;;;;;;25.29;48.36;95358.31;10476901;28;1632;-57
2022/06/23 11:50:42;;;;;;;;;;;;;;;25.28;48.15;95346.94;10454080;28;1980;-58
2022/06/23 11:55:50;;;;;;;;;;;;;;;25.30;48.12;95352.72;10471626;28;1987;-57
2022/06/23 12:00:57;;;;;;;;;;;;;;;25.36;48.11;95343.50;10460032;28;1843;-58
2022/06/23 12:06:16;;;;;;;;;;;;;;;25.33;48.32;95346.78;10492158;28;1769;-57
2022/06/23 12:11:16;;;;;;;;;;;;;;;25.37;48.37;95331.03;10492348;28;1969;-57
2022/06/23 12:16:16;;;;;;;;;;;;;;;25.38;48.03;95341.31;10446456;28;1767;-57
2022/06/23 12:21:21;;;;;;;;;;;;;;;25.41;48.47;95334.63;10451864;28;1907;-59
2022/06/23 12:26:25;;;;;;;;;;;;;;;25.42;48.13;95329.00;10458570;28;1970;-58
2022/06/23 12:31:31;;;;;;;;;;;;;;;25.42;48.09;95310.44;10470532;28;1906;-56
2022/06/23 12:36:33;;;;;;;;;;;;;;;25.43;47.96;95309.31;10473119;28;1849;-60
2022/06/23 12:41:36;;;;;;;;;;;;;;;25.46;47.83;95303.41;10472443;28;1864;-57
2022/06/23 12:46:36;;;;;;;;;;;;;;;25.48;47.95;95308.38;10443298;28;1844;-59
2022/06/23 12:51:55;;;;;;;;;;;;;;;25.47;48.22;95281.06;10472144;28;2034;-56
2022/06/23 12:56:55;;;;;;;;;;;;;;;25.47;48.04;95280.31;10471140;28;1829;-56
2022/06/23 13:01:57;;;;;;;;;;;;;;;25.49;47.71;95273.56;10471978;28;1865;-58
2022/06/23 13:07:04;;;;;;;;;;;;;;;25.49;48.05;95278.88;10470642;28;1841;-57
2022/06/23 13:12:06;;;;;;;;;;;;;;;25.51;47.94;95267.97;10472300;28;2145;-57
2022/06/23 13:17:10;;;;;;;;;;;;;;;25.53;47.73;95274.50;10469548;28;1765;-59
2022/06/23 13:22:11;;;;;;;;;;;;;;;25.54;47.98;95272.63;10475909;28;1943;-58
2022/06/23 13:27:14;;;;;;;;;;;;;;;25.54;48.15;95251.41;10471450;28;1738;-57
2022/06/23 13:32:24;;;;;;;;;;;;;;;25.55;47.98;95253.75;10469122;28;1909;-59
2022/06/23 13:37:54;;;;;;;;;;;;;;;25.56;47.76;95249.19;10473678;28;1811;-58
2022/06/23 13:42:55;;;;;;;;;;;;;;;25.56;47.77;95255.28;10441110;28;1843;-55
2022/06/23 13:48:11;;;;;;;;;;;;;;;25.58;48.16;95247.78;10467505;28;1983;-56
2022/06/23 13:53:16;;;;;;;;;;;;;;;25.57;48.02;95234.84;10479992;28;1824;-57
2022/06/23 13:58:19;;;;;;;;;;;;;;;25.61;48.03;95227.81;10487880;28;1885;-58
2022/06/23 14:03:34;;;;;;;;;;;;;;;25.61;48.30;95260.44;10496189;28;1875;-57
2022/06/23 14:08:37;;;;;;;;;;;;;;;25.62;48.22;95222.19;10479986;28;1945;-59
2022/06/23 14:13:38;;;;;;;;;;;;;;;25.64;48.22;95217.31;10471614;28;2158;-55
2022/06/23 14:18:40;;;;;;;;;;;;;;;25.62;48.22;95203.59;10474450;28;1828;-58
2022/06/23 14:23:46;;;;;;;;;;;;;;;25.65;48.39;95195.00;10478530;28;1865;-57
2022/06/23 14:28:49;;;;;;;;;;;;;;;25.66;48.20;95195.78;10453805;28;1913;-57
2022/06/23 14:33:54;;;;;;;;;;;;;;;25.61;48.48;95190.66;10461439;28;1834;-56
2022/06/23 14:39:00;;;;;;;;;;;;;;;25.66;48.37;95182.50;10479965;28;1848;-57
2022/06/23 14:44:13;;;;;;;;;;;;;;;25.68;48.30;95177.66;10460758;28;1835;-57
2022/06/23 14:49:27;;;;;;;;;;;;;;;25.67;48.59;95178.75;10444288;28;1989;-61
2022/06/23 14:54:31;;;;;;;;;;;;;;;25.68;48.47;95183.75;10462305;28;1955;-60
2022/06/23 14:59:50;;;;;;;;;;;;;;;25.69;48.59;95171.25;10453386;28;1887;-59
2022/06/23 15:04:50;;;;;;;;;;;;;;;25.68;48.53;95162.50;10476701;28;1951;-56
2022/06/23 15:10:00;;;;;;;;;;;;;;;25.69;48.53;95160.63;10484518;28;1959;-59
2022/06/23 15:15:00;;;;;;;;;;;;;;;25.69;48.86;95148.16;10471449;28;1798;-56
2022/06/23 15:20:19;;;;;;;;;;;;;;;25.71;48.96;95161.09;10478814;28;1845;-58
2022/06/23 15:25:28;;;;;;;;;;;;;;;25.72;48.79;95157.31;10461524;28;1980;-56
2022/06/23 15:30:39;;;;;;;;;;;;;;;25.75;49.09;95154.84;10490615;28;1977;-58
2022/06/23 15:35:56;;;;;;;;;;;;;;;25.76;49.22;95139.69;10456227;28;1890;-57
2022/06/23 15:41:11;;;;;;;;;;;;;;;25.75;49.21;95122.97;10440638;28;1855;-55
2022/06/23 15:46:21;;;;;;;;;;;;;;;25.77;49.20;95110.16;10456567;28;1825;-58
2022/06/23 15:51:22;;;;;;;;;;;;;;;25.76;49.28;95100.63;10476951;28;1977;-56
2022/06/23 15:56:37;;;;;;;;;;;;;;;25.77;49.26;95102.19;10474527;28;1873;-60
2022/06/23 16:01:42;;;;;;;;;;;;;;;25.78;49.34;95097.66;10459121;28;1770;-58
2022/06/23 16:06:45;;;;;;;;;;;;;;;25.77;49.41;95101.41;10477739;28;1896;-56
2022/06/23 16:11:50;;;;;;;;;;;;;;;25.78;49.28;95079.84;10470170;28;1914;-57
2022/06/23 16:16:57;;;;;;;;;;;;;;;25.76;49.36;95074.06;10483297;28;1781;-53
2022/06/23 16:22:02;;;;;;;;;;;;;;;25.77;49.35;95072.19;10467791;28;1847;-59
2022/06/23 16:27:13;;;;;;;;;;;;;;;25.74;49.07;95068.31;10470636;28;1796;-59
2022/06/23 16:32:18;;;;;;;;;;;;;;;25.74;49.27;95078.94;10450178;28;1981;-57
2022/06/23 16:37:19;;;;;;;;;;;;;;;25.74;49.15;95081.59;10436096;28;1912;-56
2022/06/23 16:42:26;;;;;;;;;;;;;;;25.73;48.95;95074.72;10457839;28;1827;-57
2022/06/23 16:47:37;;;;;;;;;;;;;;;25.72;48.81;95057.22;10473864;28;1830;-59
2022/06/23 16:52:45;;;;;;;;;;;;;;;25.70;48.65;95072.72;10472425;28;1981;-58
2022/06/23 16:57:52;;;;;;;;;;;;;;;25.72;48.48;95073.16;10455424;28;1903;-56
2022/06/23 17:02:59;;;;;;;;;;;;;;;25.72;48.37;95053.78;10474564;28;1787;-58
2022/06/23 17:08:16;;;;;;;;;;;;;;;25.72;48.58;95067.84;10477996;28;1970;-58
2022/06/23 17:13:19;;;;;;;;;;;;;;;25.71;48.49;95052.25;10457645;28;1920;-58
2022/06/23 17:18:28;;;;;;;;;;;;;;;25.71;48.24;95050.38;10468337;28;1884;-59
2022/06/23 17:23:28;;;;;;;;;;;;;;;25.72;48.26;95059.88;10456497;28;1868;-57
2022/06/23 17:28:34;;;;;;;;;;;;;;;25.72;48.34;95056.44;10449127;28;1110772;-57
2022/06/23 17:33:46;;;;;;;;;;;;;;;25.73;48.28;95050.84;10473321;28;1832;-57
2022/06/23 17:44:16;;;;;;;;;;;;;;;25.72;48.37;95054.56;10436477;28;1785;-57
2022/06/23 17:49:22;;;;;;;;;;;;;;;25.71;48.28;95047.72;10446932;28;1989;-59
2022/06/23 17:54:25;;;;;;;;;;;;;;;25.70;48.25;95040.84;10452745;28;1805;-57
2022/06/23 17:59:33;;;;;;;;;;;;;;;25.72;48.21;95051.13;10470099;28;1828;-60
2022/06/23 18:04:34;;;;;;;;;;;;;;;25.69;47.90;95034.00;10488210;28;1871;-57
2022/06/23 18:09:34;;;;;;;;;;;;;;;25.68;47.91;95037.75;10476102;28;1944;-56
2022/06/23 18:14:38;;;;;;;;;;;;;;;25.69;47.88;95036.66;10437152;28;1880;-58
2022/06/23 18:19:46;;;;;;;;;;;;;;;25.69;47.51;95031.34;10482431;28;1811;-58
2022/06/23 18:24:48;;;;;;;;;;;;;;;25.68;47.55;95040.41;10435503;28;1489;-58
2022/06/23 18:29:48;;;;;;;;;;;;;;;25.66;47.85;95039.16;10473982;28;1973;-58
2022/06/23 18:35:00;;;;;;;;;;;;;;;25.63;48.11;95045.91;10480580;28;1474;-56
2022/06/23 18:40:13;;;;;;;;;;;;;;;25.61;48.02;95048.13;10461351;28;1791;-59
2022/06/23 18:45:18;;;;;;;;;;;;;;;25.61;47.87;95039.38;10477188;28;1419;-57
2022/06/23 18:50:20;;;;;;;;;;;;;;;25.58;47.74;95040.78;10448222;28;2035;-56
2022/06/23 18:55:24;;;;;;;;;;;;;;;25.54;47.87;95039.88;10461569;28;1494;-56
2022/06/23 19:00:24;;;;;;;;;;;;;;;25.52;47.68;95043.94;10476127;28;1463;-58
2022/06/23 19:05:27;;;;;;;;;;;;;;;25.49;47.84;95048.00;10462170;28;1424;-58
2022/06/23 19:10:31;;;;;;;;;;;;;;;25.50;47.81;95041.63;10458378;28;1909;-58
2022/06/23 19:15:40;;;;;;;;;;;;;;;25.49;48.18;95050.66;10475665;28;1565;-59
2022/06/23 19:20:45;;;;;;;;;;;;;;;25.44;48.33;95048.22;10477099;28;1492;-56
2022/06/23 19:25:48;;;;;;;;;;;;;;;25.44;48.62;95032.28;10490604;28;1764;-59
2022/06/23 19:31:02;;;;;;;;;;;;;;;25.44;48.80;95048.22;10444919;28;1910;-55
2022/06/23 19:36:09;;;;;;;;;;;;;;;25.42;48.82;95052.28;10458171;28;1824;-59
2022/06/23 19:41:09;;;;;;;;;;;;;;;25.38;49.00;95053.97;10456628;28;1879;-57
2022/06/23 19:46:11;;;;;;;;;;;;;;;25.32;49.31;95060.56;10458304;28;1750;-57
2022/06/23 19:51:12;;;;;;;;;;;;;;;25.26;49.26;95073.25;10463829;28;1910;-55
2022/06/23 19:56:17;;;;;;;;;;;;;;;25.25;49.95;95081.50;10474832;28;1758;-56
2022/06/23 20:01:19;;;;;;;;;;;;;;;25.23;49.91;95086.34;10491580;28;1537;-57
2022/06/23 20:06:23;;;;;;;;;;;;;;;25.20;49.86;95084.34;10457044;28;1870;-58
2022/06/23 20:11:23;;;;;;;;;;;;;;;25.17;49.86;95083.09;10454813;28;2001;-58
2022/06/23 20:16:31;;;;;;;;;;;;;;;25.12;49.89;95085.94;10457857;28;1812;-56
2022/06/23 20:21:45;;;;;;;;;;;;;;;25.11;50.12;95080.94;10478511;28;1860;-59
2022/06/23 20:26:47;;;;;;;;;;;;;;;25.07;49.99;95072.84;10456695;28;1820;-60
2022/06/23 20:31:51;;;;;;;;;;;;;;;25.02;50.01;95065.84;10444334;28;2015;-54
2022/06/23 20:36:57;;;;;;;;;;;;;;;25.00;50.14;95056.63;10476978;28;1840;-58
2022/06/23 20:41:57;;;;;;;;;;;;;;;24.97;50.04;95057.28;10460270;28;1796;-59
2022/06/23 20:46:57;;;;;;;;;;;;;;;24.94;49.86;95047.31;10462924;28;1859;-58
2022/06/23 20:52:09;;;;;;;;;;;;;;;24.90;49.76;95055.13;10475639;28;1981;-59
2022/06/23 20:57:09;;;;;;;;;;;;;;;24.85;49.60;95051.88;10480588;28;1850;-58
2022/06/23 21:02:10;;;;;;;;;;;;;;;24.82;49.66;95047.19;10459924;28;1792;-56
2022/06/23 21:07:31;;;;;;;;;;;;;;;24.82;49.74;95044.53;10474038;28;1912;-58
2022/06/23 21:12:46;;;;;;;;;;;;;;;24.81;49.85;95066.88;10478710;28;1983;-55
2022/06/23 21:18:05;;;;;;;;;;;;;;;24.80;49.92;95097.88;10460947;28;2119;-59
2022/06/23 21:23:12;;;;;;;;;;;;;;;24.77;49.94;95138.25;10452689;28;1980;-57
2022/06/23 21:28:31;;;;;;;;;;;;;;;24.75;49.91;95168.84;10470350;28;1977;-56
2022/06/23 21:33:33;;;;;;;;;;;;;;;24.73;49.53;95144.50;10471672;28;1935;-58
2022/06/23 21:38:39;;;;;;;;;;;;;;;24.69;49.55;95152.28;10453212;28;1916;-58
2022/06/23 21:43:42;;;;;;;;;;;;;;;24.74;49.28;95156.69;10471766;28;1869;-59
2022/06/23 21:48:42;;;;;;;;;;;;;;;24.71;48.21;95163.34;10456023;28;2000;-60
2022/06/23 21:54:13;;;;;;;;;;;;;;;24.65;47.09;95169.91;10473610;28;1789;-58
2022/06/23 21:59:16;;;;;;;;;;;;;;;24.59;46.23;95152.59;10402191;28;2080;-57
2022/06/23 22:04:18;;;;;;;;;;;;;;;24.52;45.54;95123.16;10458518;28;2141;-57
2022/06/23 22:09:18;;;;;;;;;;;;;;;24.50;45.25;95113.97;10449568;28;1914;-57
2022/06/23 22:14:29;;;;;;;;;;;;;;;24.41;44.81;95118.47;10494663;28;1861;-59
2022/06/23 22:19:48;;;;;;;;;;;;;;;24.39;44.86;95134.69;10462829;28;1891;-59
2022/06/23 22:30:21;;;;;;;;;;;;;;;24.31;45.52;95101.03;10477519;28;1976;-55
2022/06/23 22:35:32;;;;;;;;;;;;;;;24.47;45.60;95104.78;10477566;28;1843;-59
2022/06/23 22:40:32;;;;;;;;;;;;;;;24.59;46.00;95127.97;10456975;28;1786;-57
2022/06/23 22:45:45;;;;;;;;;;;;;;;24.69;46.11;95191.28;10461559;28;1855;-57
2022/06/23 22:50:48;;;;;;;;;;;;;;;24.76;46.17;95234.78;10463892;28;1938;-59
2022/06/23 22:55:48;;;;;;;;;;;;;;;24.83;46.07;95260.84;10462504;28;1814;-57
2022/06/23 23:01:02;;;;;;;;;;;;;;;24.88;46.22;95285.31;10459196;28;1953;-58
2022/06/23 23:06:18;;;;;;;;;;;;;;;24.92;46.24;95280.94;10481419;28;1844;-59
2022/06/23 23:11:23;;;;;;;;;;;;;;;24.96;46.16;95278.44;10460416;28;1973;-56
2022/06/23 23:16:30;;;;;;;;;;;;;;;25.00;46.44;95282.81;10473823;28;1825;-59
2022/06/23 23:21:31;;;;;;;;;;;;;;;25.02;46.32;95275.31;10498707;28;1858;-57
2022/06/23 23:26:34;;;;;;;;;;;;;;;25.05;46.49;95263.31;10477721;28;1852;-59
2022/06/23 23:31:35;;;;;;;;;;;;;;;25.08;46.50;95241.47;10495620;28;1969;-56
2022/06/23 23:36:35;;;;;;;;;;;;;;;25.09;46.57;95218.38;10462828;28;1938;-56
2022/06/23 23:41:39;;;;;;;;;;;;;;;25.12;46.56;95233.69;10458856;28;1884;-59
2022/06/23 23:46:42;;;;;;;;;;;;;;;25.13;46.53;95241.31;10472252;28;1882;-59
2022/06/23 23:51:42;;;;;;;;;;;;;;;25.16;46.57;95242.56;10474742;28;1917;-57
2022/06/23 23:56:44;;;;;;;;;;;;;;;25.19;46.63;95232.09;10438711;28;1924;-59
